Etusivu
METAR-TAF:

METAR-TAF

Lentoasemat :

Madeiran lentoasema

Funchal, Madeira, Portugali

Leveyspiiri: 32-41-52N, Pituuspiiri: 016-46-28W, korkeus merenpinnasta: 59 m

Tämänhetkinen sää

Tämä raportti tehtiin 12 minuuttia sitten, kello 10.30 UTC
Tuuli 12 kn eri suunnista
Lämpötila 22°C
Kosteus 69%
Ilmanpaine 1018 hPa
Näkyvyys 10 km tai enemmän
Muutamia pilviä 1500 ft:n korkeudessa

METAR: LPMA 291030Z VRB12KT 9999 FEW015 22/16 Q1018

Aika: 11:42 (10:42 UTC)

Sääennuste

Tämä raportti tehtiin 5 tuntia ja 42 minuuttia sitten, kello 05.00 UTC
Ennuste voimassa 29. päivästä klo 06 UTC - 30. päivään klo 06 UTC
Tuuli 8 kn pohjoisesta
Näkyvyys 10 km tai enemmän
Hajanaisia pilviä 1500 ft:n korkeudessa
Todennäköisyys 30%
29. päivästä klo 12 UTC - 29. päivään klo 18 UTC
Tuuli 8 kn lounaasta

TAF: LPMA 290500Z 2906/3006 01008KT 9999 SCT015 PROB30 2912/2918 23008KT

Säähavainnot ja -ennusteet yli 4000 lentoasemalta (METAR- ja TAF-raportit).

Käytössä olevat sääasemat on merkitty karttaan keltaisilla ja punaisilla pisteillä.

Aseta hiiri pisteen päälle nähdäksesi sääaseman nimen.

Klikkaa sitten nähdäksesi säähavainnot ja -ennusteet.

Kartan vaihtaminen: klikkaa mustalla rastilla varustettuja vihreitä pisteitä, niin voit zoomata sisään; viivalla varustettua vihreää pistettä, niin voit zoomata ulos tai vihreitä nuolia, niin pääset viereisille kartoille.


METAR-TAF: